Time;durP1;ratioP1;P1;durP2;ratioP2;P2;SDS_P1;SDS_P2;PMS_P1;PMS_P2;Temp;Humidity;BMP_temperature;BMP_pressure;BME280_temperature;BME280_humidity;BME280_pressure;Samples;Min_cycle;Max_cycle;Signal;HPM_P1;HPM_P2
2022/03/23 00:01:38;;;;;;;8.65;5.00;;;8.60;95.60;;;;;;4953134;29;20023;-73
2022/03/23 00:04:04;;;;;;;11.95;5.20;;;8.60;95.60;;;;;;4954090;29;20534;-72
2022/03/23 00:06:29;;;;;;;12.27;5.25;;;8.60;95.50;;;;;;4953916;29;20135;-73
2022/03/23 00:08:55;;;;;;;11.50;5.30;;;8.70;95.50;;;;;;4953911;29;20135;-73
2022/03/23 00:11:21;;;;;;;14.55;5.45;;;8.60;95.40;;;;;;4953722;29;20063;-72
2022/03/23 00:13:47;;;;;;;12.95;4.80;;;8.60;95.60;;;;;;4954122;29;20075;-73
2022/03/23 00:16:13;;;;;;;11.25;5.03;;;8.50;95.60;;;;;;4953511;28;20038;-72
2022/03/23 00:18:39;;;;;;;10.40;5.25;;;8.50;95.60;;;;;;4953759;29;20020;-72
2022/03/23 00:21:05;;;;;;;9.93;5.50;;;8.50;95.50;;;;;;4954004;29;20029;-72
2022/03/23 00:23:31;;;;;;;12.55;5.65;;;8.50;95.80;;;;;;4953964;29;20449;-73
2022/03/23 00:25:59;;;;;;;13.27;5.50;;;8.50;95.80;;;;;;4953905;29;20023;-73
2022/03/23 00:28:26;;;;;;;8.50;4.65;;;8.50;95.50;;;;;;4952706;28;20035;-73
2022/03/23 00:30:52;;;;;;;10.10;5.18;;;8.50;95.40;;;;;;4953239;29;20054;-73
2022/03/23 00:33:17;;;;;;;9.45;5.43;;;8.50;95.30;;;;;;4971477;28;20065;-73
2022/03/23 00:35:43;;;;;;;12.20;6.07;;;8.60;95.20;;;;;;4972105;28;20100;-73
2022/03/23 00:38:09;;;;;;;10.48;5.18;;;8.60;94.90;;;;;;4973186;28;20069;-73
2022/03/23 00:40:37;;;;;;;8.73;4.95;;;8.60;95.10;;;;;;4972642;28;20483;-73
2022/03/23 00:43:03;;;;;;;10.90;5.50;;;8.60;95.30;;;;;;4973246;28;20023;-73
2022/03/23 00:45:29;;;;;;;14.77;5.50;;;8.60;95.10;;;;;;4972662;28;20387;-73
2022/03/23 00:47:56;;;;;;;11.95;5.80;;;8.60;95.00;;;;;;4972897;28;20026;-73
2022/03/23 00:50:23;;;;;;;10.13;5.40;;;8.60;94.90;;;;;;4970246;28;20117;-73
2022/03/23 00:52:49;;;;;;;14.50;5.25;;;8.60;95.00;;;;;;4966878;28;20476;-73
2022/03/23 00:55:15;;;;;;;11.18;5.47;;;8.60;94.80;;;;;;4968374;28;20110;-73
2022/03/23 00:57:41;;;;;;;12.80;5.15;;;8.60;95.00;;;;;;4965286;28;20550;-73
2022/03/23 01:00:12;;;;;;;14.13;4.95;;;8.60;94.90;;;;;;4972909;28;20023;-73
2022/03/23 01:02:39;;;;;;;13.70;5.47;;;8.60;94.90;;;;;;4972793;28;20058;-73
2022/03/23 01:05:05;;;;;;;14.63;5.30;;;8.60;95.00;;;;;;4972852;28;20026;-72
2022/03/23 01:07:31;;;;;;;11.65;6.30;;;8.60;95.00;;;;;;4974219;28;20049;-72
2022/03/23 01:09:56;;;;;;;13.43;4.78;;;8.60;95.00;;;;;;4976262;28;20433;-72
2022/03/23 01:12:22;;;;;;;11.93;4.88;;;8.60;95.20;;;;;;4959063;28;20042;-72
2022/03/23 01:14:48;;;;;;;8.52;5.18;;;8.60;95.20;;;;;;4957115;29;20063;-72
2022/03/23 01:17:14;;;;;;;10.43;5.22;;;8.60;95.40;;;;;;4956956;29;20130;-72
2022/03/23 01:19:40;;;;;;;13.38;5.20;;;8.60;95.40;;;;;;4956641;29;20028;-72
2022/03/23 01:22:06;;;;;;;7.68;5.25;;;8.50;95.70;;;;;;4957008;29;20039;-73
2022/03/23 01:24:32;;;;;;;8.50;5.30;;;8.50;95.80;;;;;;4956174;29;20028;-73
2022/03/23 01:26:58;;;;;;;11.30;5.53;;;8.50;95.90;;;;;;4956115;29;20051;-72
2022/03/23 01:29:23;;;;;;;11.93;5.70;;;8.50;95.70;;;;;;4957248;29;20083;-72
2022/03/23 01:31:49;;;;;;;10.80;5.25;;;8.50;95.50;;;;;;4956312;29;20523;-73
2022/03/23 01:34:15;;;;;;;13.30;5.40;;;8.50;95.60;;;;;;4956617;29;20102;-73
2022/03/23 01:36:41;;;;;;;13.50;5.38;;;8.50;95.70;;;;;;4956672;29;20027;-73
2022/03/23 01:39:07;;;;;;;12.63;5.30;;;8.50;95.70;;;;;;4956194;29;20020;-73
2022/03/23 01:41:37;;;;;;;12.60;4.82;;;8.50;95.40;;;;;;4956197;29;20550;-73
2022/03/23 01:44:13;;;;;;;13.20;4.93;;;8.50;95.40;;;;;;4956121;29;20121;-73
2022/03/23 01:47:03;;;;;;;12.60;5.10;;;8.50;95.30;;;;;;4956253;29;20090;-72
2022/03/23 01:49:29;;;;;;;10.10;5.72;;;8.60;95.30;;;;;;4956442;29;20070;-73
2022/03/23 01:51:55;;;;;;;9.95;5.40;;;8.60;95.50;;;;;;4947741;29;20039;-73
2022/03/23 01:54:21;;;;;;;11.82;5.28;;;8.50;95.30;;;;;;4955799;28;20055;-73
2022/03/23 01:56:48;;;;;;;9.75;5.10;;;8.60;95.60;;;;;;4955828;28;20102;-73
2022/03/23 01:59:16;;;;;;;9.88;5.32;;;8.60;95.30;;;;;;4956324;28;20039;-73
2022/03/23 02:01:43;;;;;;;10.18;4.82;;;8.60;95.30;;;;;;4956392;28;20053;-73
2022/03/23 02:04:09;;;;;;;9.80;4.75;;;8.60;95.40;;;;;;4956075;28;20027;-73
2022/03/23 02:06:35;;;;;;;12.10;4.32;;;8.60;95.30;;;;;;4957963;28;20134;-73
2022/03/23 02:09:01;;;;;;;13.77;4.63;;;8.70;95.20;;;;;;4975296;28;20494;-72
2022/03/23 02:11:27;;;;;;;9.07;4.93;;;8.70;95.20;;;;;;4962623;28;20031;-73
2022/03/23 02:13:53;;;;;;;8.35;4.80;;;8.60;95.30;;;;;;4955500;29;20104;-73
2022/03/23 02:16:19;;;;;;;8.98;5.15;;;8.70;95.30;;;;;;4955927;29;20038;-72
2022/03/23 02:18:46;;;;;;;10.60;4.60;;;8.70;95.40;;;;;;4954645;28;20074;-73
2022/03/23 02:21:15;;;;;;;7.55;4.50;;;8.70;95.50;;;;;;4955801;29;20106;-73
2022/03/23 02:23:41;;;;;;;10.10;4.80;;;8.70;95.70;;;;;;4955485;29;20150;-73
2022/03/23 02:26:08;;;;;;;6.63;4.38;;;8.60;95.80;;;;;;4955469;29;20030;-73
2022/03/23 02:28:36;;;;;;;11.23;5.20;;;8.60;95.90;;;;;;4955436;29;20130;-72
2022/03/23 02:31:02;;;;;;;10.57;5.13;;;8.60;95.90;;;;;;4955294;29;20038;-73
2022/03/23 02:33:28;;;;;;;11.57;5.43;;;8.70;95.90;;;;;;4955101;29;20114;-73
2022/03/23 02:35:54;;;;;;;11.13;4.65;;;8.60;96.00;;;;;;4955286;29;20106;-73
2022/03/23 02:38:20;;;;;;;10.10;4.72;;;8.60;95.90;;;;;;4955333;29;20727;-73
2022/03/23 02:40:47;;;;;;;11.75;4.85;;;8.70;95.80;;;;;;4955201;29;20439;-72
2022/03/23 02:43:13;;;;;;;6.93;4.65;;;8.70;95.80;;;;;;4955676;29;20195;-73
2022/03/23 02:45:39;;;;;;;6.90;4.55;;;8.60;95.90;;;;;;4955191;29;20038;-73
2022/03/23 02:48:06;;;;;;;6.40;4.18;;;8.70;96.00;;;;;;4954998;29;20031;-73
2022/03/23 02:50:33;;;;;;;8.52;4.82;;;8.60;95.80;;;;;;4955136;29;20173;-73
2022/03/23 03:01:52;;;;;;;6.30;4.28;;;8.70;95.50;;;;;;4955471;28;20042;-73
2022/03/23 03:04:18;;;;;;;8.48;4.43;;;8.60;95.80;;;;;;4936088;29;20500;-73
2022/03/23 03:06:43;;;;;;;10.75;5.20;;;8.70;95.80;;;;;;4954436;29;20098;-73
2022/03/23 03:09:09;;;;;;;7.85;4.28;;;8.70;96.00;;;;;;4954828;29;20055;-73
2022/03/23 03:11:35;;;;;;;11.00;5.20;;;8.60;96.00;;;;;;4954633;29;20046;-72
2022/03/23 03:14:00;;;;;;;10.20;4.68;;;8.60;96.30;;;;;;4954673;29;20031;-73
2022/03/23 03:16:26;;;;;;;7.18;4.53;;;8.60;96.30;;;;;;4954671;28;20050;-72
2022/03/23 03:18:52;;;;;;;12.45;5.10;;;8.60;96.40;;;;;;4954617;29;20487;-72
2022/03/23 03:21:18;;;;;;;12.77;5.22;;;8.60;96.60;;;;;;4954731;29;20024;-72
2022/03/23 03:23:45;;;;;;;8.18;4.38;;;8.60;96.60;;;;;;4967766;28;20034;-73
2022/03/23 03:26:13;;;;;;;8.15;4.43;;;8.60;96.80;;;;;;4973678;28;20482;-73
2022/03/23 03:28:40;;;;;;;12.07;4.93;;;8.60;96.90;;;;;;4949569;29;20031;-73
2022/03/23 03:31:08;;;;;;;9.57;4.88;;;8.60;97.00;;;;;;4934607;29;20055;-73
2022/03/23 03:33:35;;;;;;;11.60;4.93;;;8.60;97.10;;;;;;4935363;29;20106;-73
2022/03/23 03:36:01;;;;;;;8.82;4.45;;;8.60;97.20;;;;;;4935118;29;20035;-73
2022/03/23 03:38:27;;;;;;;6.55;3.50;;;8.60;97.30;;;;;;4917813;29;20514;-73
2022/03/23 03:40:54;;;;;;;8.55;5.18;;;8.70;97.40;;;;;;4935551;29;20029;-73
2022/03/23 03:43:20;;;;;;;8.70;4.57;;;8.60;97.50;;;;;;4934924;29;20023;-73
2022/03/23 03:45:45;;;;;;;8.20;4.93;;;8.60;97.60;;;;;;4934906;29;20028;-73
2022/03/23 03:48:12;;;;;;;7.97;4.72;;;8.60;97.50;;;;;;4934895;29;20091;-73
2022/03/23 03:50:39;;;;;;;14.10;5.05;;;8.60;97.60;;;;;;4934958;29;20036;-73
2022/03/23 03:53:09;;;;;;;8.82;4.50;;;8.60;97.90;;;;;;4917429;29;20036;-73
2022/03/23 03:55:39;;;;;;;15.20;5.57;;;8.60;97.80;;;;;;4935031;29;20443;-73
2022/03/23 03:58:06;;;;;;;9.15;5.65;;;8.60;97.90;;;;;;4950163;29;20059;-73
2022/03/23 04:00:35;;;;;;;11.05;5.80;;;8.50;98.10;;;;;;4954065;29;20027;-73
2022/03/23 04:03:04;;;;;;;7.13;4.53;;;8.50;98.10;;;;;;4953838;29;20027;-73
2022/03/23 04:05:30;;;;;;;9.45;5.43;;;8.60;97.90;;;;;;4954077;29;20031;-73
2022/03/23 04:07:56;;;;;;;12.15;5.22;;;8.60;98.00;;;;;;4953971;29;20142;-73
2022/03/23 04:10:23;;;;;;;10.60;4.45;;;8.60;98.10;;;;;;4938863;29;20031;-72
2022/03/23 04:12:49;;;;;;;12.80;4.93;;;8.60;98.20;;;;;;4934987;29;20098;-73
2022/03/23 04:15:15;;;;;;;12.15;5.55;;;8.60;98.30;;;;;;4934515;29;20111;-72
2022/03/23 04:17:41;;;;;;;7.78;5.00;;;8.60;98.60;;;;;;4934798;29;20031;-72
2022/03/23 04:20:09;;;;;;;11.88;4.13;;;8.50;98.80;;;;;;4934700;29;20027;-72
2022/03/23 04:22:35;;;;;;;12.85;5.28;;;8.60;99.00;;;;;;4934428;29;20016;-72
2022/03/23 04:25:00;;;;;;;9.60;5.05;;;8.60;98.80;;;;;;4947774;29;20047;-72
2022/03/23 04:27:26;;;;;;;10.23;5.15;;;8.60;98.70;;;;;;4953624;28;20043;-72
2022/03/23 04:29:52;;;;;;;7.80;5.47;;;8.60;98.80;;;;;;4953726;29;20031;-73
2022/03/23 04:32:18;;;;;;;7.88;4.63;;;8.50;99.10;;;;;;4954071;29;20068;-73
2022/03/23 04:34:43;;;;;;;11.35;5.10;;;8.50;99.20;;;;;;4953698;29;20035;-73
2022/03/23 04:37:09;;;;;;;13.85;6.55;;;8.60;99.20;;;;;;4953303;29;20038;-73
2022/03/23 04:39:35;;;;;;;12.05;4.75;;;8.50;99.60;;;;;;4936542;29;20031;-73
2022/03/23 04:42:00;;;;;;;9.15;5.05;;;8.60;99.40;;;;;;4954411;28;20023;-72
2022/03/23 04:44:26;;;;;;;9.38;5.20;;;8.60;99.40;;;;;;4957667;29;20423;-72
2022/03/23 04:46:52;;;;;;;9.75;4.93;;;8.50;99.80;;;;;;4957580;29;20027;-73
2022/03/23 04:49:18;;;;;;;8.48;4.82;;;8.60;99.60;;;;;;4957228;29;20487;-73
2022/03/23 04:51:44;;;;;;;11.02;5.13;;;8.60;99.50;;;;;;4953767;29;20027;-73
2022/03/23 04:54:09;;;;;;;10.73;5.35;;;8.60;99.90;;;;;;4938030;29;20459;-73
2022/03/23 04:56:35;;;;;;;10.63;5.07;;;8.60;99.90;;;;;;4921025;29;20070;-73
2022/03/23 04:59:01;;;;;;;14.48;4.97;;;8.60;99.90;;;;;;4937960;29;20031;-73
2022/03/23 05:01:26;;;;;;;12.55;5.63;;;8.60;99.90;;;;;;4938296;29;20020;-73
2022/03/23 05:03:52;;;;;;;13.25;4.60;;;8.60;99.90;;;;;;4937774;29;20045;-73
2022/03/23 05:06:19;;;;;;;12.02;5.20;;;8.60;99.90;;;;;;4937594;29;20209;-73
2022/03/23 05:08:45;;;;;;;9.82;4.65;;;8.70;99.90;;;;;;4938068;29;20078;-73
2022/03/23 05:11:11;;;;;;;9.55;5.65;;;8.60;99.90;;;;;;4937525;29;20031;-73
2022/03/23 05:13:37;;;;;;;10.93;5.10;;;8.60;99.90;;;;;;4937807;29;20451;-74
2022/03/23 05:16:03;;;;;;;9.27;5.13;;;8.60;99.90;;;;;;4937568;29;20030;-74
2022/03/23 05:18:29;;;;;;;10.88;5.82;;;8.60;99.90;;;;;;4945521;29;20133;-73
2022/03/23 05:20:55;;;;;;;12.10;4.95;;;8.50;99.90;;;;;;4955899;29;20125;-73
2022/03/23 05:23:21;;;;;;;11.80;4.97;;;8.50;99.90;;;;;;4957338;29;20086;-73
2022/03/23 05:25:46;;;;;;;13.80;5.65;;;8.50;99.90;;;;;;4956315;29;20573;-73
2022/03/23 05:28:13;;;;;;;11.40;6.00;;;8.50;99.90;;;;;;4956303;28;20081;-72
2022/03/23 05:30:38;;;;;;;10.30;5.45;;;8.50;99.90;;;;;;4946408;29;20034;-73
2022/03/23 05:33:05;;;;;;;12.00;5.22;;;8.50;99.90;;;;;;4937170;29;20103;-73
2022/03/23 05:35:31;;;;;;;11.82;5.50;;;8.50;99.90;;;;;;4937202;29;20107;-72
2022/03/23 05:37:56;;;;;;;10.07;5.00;;;8.50;99.90;;;;;;4937727;29;20110;-73
2022/03/23 05:40:23;;;;;;;16.70;5.88;;;8.50;99.90;;;;;;4937047;29;20016;-73
2022/03/23 05:42:50;;;;;;;12.88;5.32;;;8.50;99.90;;;;;;4937405;29;20027;-73
2022/03/23 05:45:16;;;;;;;12.88;5.32;;;8.40;99.90;;;;;;4936863;29;20060;-73
2022/03/23 05:47:42;;;;;;;10.65;6.18;;;8.40;99.90;;;;;;4939309;29;20470;-72
2022/03/23 05:50:09;;;;;;;11.57;5.43;;;8.40;99.90;;;;;;4956634;29;20034;-73
2022/03/23 05:52:40;;;;;;;11.20;5.03;;;8.40;99.90;;;;;;4955567;29;20053;-73
2022/03/23 05:55:07;;;;;;;9.88;4.95;;;8.40;99.90;;;;;;4955369;28;20038;-73
2022/03/23 05:57:34;;;;;;;11.43;5.88;;;8.50;99.90;;;;;;4956707;29;20023;-73
2022/03/23 05:59:59;;;;;;;9.85;4.95;;;8.60;99.90;;;;;;4956060;29;20360;-73
2022/03/23 06:02:26;;;;;;;13.38;5.68;;;8.60;99.90;;;;;;4955718;29;20042;-73
2022/03/23 06:04:51;;;;;;;14.30;7.10;;;8.50;99.90;;;;;;4938742;29;20023;-73
2022/03/23 06:07:17;;;;;;;23.02;8.90;;;8.50;99.90;;;;;;4955366;29;20062;-73
2022/03/23 06:09:43;;;;;;;29.63;8.57;;;8.50;99.90;;;;;;4956100;29;20377;-73
2022/03/23 06:12:12;;;;;;;13.35;5.93;;;8.50;99.90;;;;;;4941340;29;20063;-73
2022/03/23 06:14:42;;;;;;;19.25;8.07;;;8.50;99.90;;;;;;4936379;29;20098;-73
2022/03/23 06:17:08;;;;;;;9.35;5.20;;;8.50;99.90;;;;;;4938765;29;20027;-73
2022/03/23 06:19:34;;;;;;;15.07;5.70;;;8.60;99.90;;;;;;4936686;29;20024;-73
2022/03/23 06:22:00;;;;;;;7.38;4.25;;;8.50;99.90;;;;;;4936769;29;20031;-72
2022/03/23 06:24:26;;;;;;;13.38;5.88;;;8.60;99.90;;;;;;4936620;29;20032;-72
2022/03/23 06:26:51;;;;;;;12.40;6.18;;;8.60;99.90;;;;;;4941821;29;20055;-72
2022/03/23 06:29:17;;;;;;;8.50;5.63;;;8.60;99.90;;;;;;4955304;29;20020;-72
2022/03/23 06:31:43;;;;;;;16.98;7.35;;;8.60;99.90;;;;;;4940094;29;20028;-72
2022/03/23 06:34:08;;;;;;;9.15;5.32;;;8.60;99.90;;;;;;4936597;29;20023;-72
2022/03/23 06:36:35;;;;;;;12.27;5.40;;;8.70;99.90;;;;;;4936163;29;20032;-72
2022/03/23 06:39:01;;;;;;;12.25;5.97;;;8.70;99.90;;;;;;4936308;29;20111;-72
2022/03/23 06:41:27;;;;;;;11.63;6.50;;;8.70;99.90;;;;;;4936019;29;20019;-72
2022/03/23 06:43:53;;;;;;;12.60;6.38;;;8.70;99.90;;;;;;4936069;29;20379;-71
2022/03/23 06:46:19;;;;;;;16.73;6.13;;;8.80;99.90;;;;;;4935563;29;20407;-72
2022/03/23 06:48:47;;;;;;;11.18;6.13;;;8.90;99.90;;;;;;4936101;29;20035;-72
2022/03/23 06:51:13;;;;;;;14.65;7.72;;;8.90;99.90;;;;;;4936131;29;20106;-72
2022/03/23 06:53:39;;;;;;;16.55;7.72;;;9.00;99.90;;;;;;4936201;29;20106;-72
2022/03/23 06:56:04;;;;;;;29.88;11.60;;;9.00;99.90;;;;;;4935673;29;20167;-72
2022/03/23 06:58:30;;;;;;;20.70;10.40;;;9.10;99.90;;;;;;4950840;29;20027;-72
2022/03/23 07:00:57;;;;;;;16.73;7.03;;;9.10;99.90;;;;;;4954726;29;20568;-72
2022/03/23 07:03:27;;;;;;;33.85;14.68;;;9.20;99.90;;;;;;4950472;29;20110;-72
2022/03/23 07:05:52;;;;;;;24.17;9.25;;;9.30;99.90;;;;;;4938343;29;20504;-74
2022/03/23 07:11:04;;;;;;;12.63;5.95;;;9.40;99.90;;;;;;4931622;29;20034;-73
2022/03/23 07:13:30;;;;;;;13.45;7.40;;;9.40;99.90;;;;;;4933103;29;20079;-73
2022/03/23 07:15:55;;;;;;;40.72;17.73;;;9.50;99.90;;;;;;4933836;29;20028;-73
2022/03/23 07:18:21;;;;;;;18.10;8.90;;;9.50;99.90;;;;;;4933371;29;20527;-73
2022/03/23 07:20:46;;;;;;;19.38;8.48;;;9.50;99.90;;;;;;4933750;29;20499;-73
2022/03/23 07:23:12;;;;;;;16.65;7.32;;;9.50;99.90;;;;;;4933965;29;20032;-72
2022/03/23 07:25:38;;;;;;;12.73;6.97;;;9.60;99.90;;;;;;4933538;29;20540;-73
2022/03/23 07:28:04;;;;;;;13.88;6.47;;;9.60;99.90;;;;;;4933511;29;20051;-73
2022/03/23 07:30:33;;;;;;;12.90;5.32;;;9.70;99.90;;;;;;4933927;29;20028;-73
2022/03/23 07:33:00;;;;;;;13.88;6.35;;;9.70;99.90;;;;;;4934881;29;20388;-73
2022/03/23 07:35:26;;;;;;;16.40;6.03;;;9.70;99.90;;;;;;4934582;29;20375;-73
2022/03/23 07:37:52;;;;;;;14.20;6.68;;;9.80;99.90;;;;;;4934478;29;20028;-73
2022/03/23 07:40:18;;;;;;;15.05;7.70;;;9.90;99.90;;;;;;4934744;29;20015;-73
2022/03/23 07:42:43;;;;;;;12.50;6.03;;;9.90;99.90;;;;;;4934280;29;20364;-72
2022/03/23 07:45:10;;;;;;;11.65;5.55;;;10.00;99.90;;;;;;4934448;29;20502;-73
2022/03/23 07:47:36;;;;;;;13.75;5.85;;;10.00;99.90;;;;;;4934406;29;20483;-73
2022/03/23 07:50:02;;;;;;;13.13;5.28;;;10.10;99.90;;;;;;4934370;29;20035;-72
2022/03/23 07:52:27;;;;;;;12.80;6.25;;;10.20;99.90;;;;;;4934260;29;20396;-73
2022/03/23 07:54:53;;;;;;;10.63;5.95;;;10.30;99.90;;;;;;4934276;29;20024;-72
2022/03/23 07:57:19;;;;;;;9.68;5.25;;;10.30;99.90;;;;;;4934245;29;20036;-72
2022/03/23 07:59:46;;;;;;;7.97;4.40;;;10.40;99.90;;;;;;4933737;29;20074;-73
2022/03/23 08:02:12;;;;;;;12.38;6.18;;;10.40;99.30;;;;;;4935660;29;20015;-72
2022/03/23 08:04:38;;;;;;;13.73;4.97;;;10.50;99.10;;;;;;4934500;29;20039;-73
2022/03/23 08:07:04;;;;;;;11.30;4.43;;;10.70;98.70;;;;;;4933231;29;20481;-73
2022/03/23 08:09:30;;;;;;;9.65;5.75;;;10.70;98.00;;;;;;4934141;29;20026;-73
2022/03/23 08:11:57;;;;;;;7.40;4.57;;;10.90;98.40;;;;;;4937896;29;20039;-73
2022/03/23 12:42:34;;;;;;;11.27;4.43;;;15.60;74.80;;;;;;6052585;23;20868;-73
2022/03/23 12:45:14;;;;;;;12.35;4.57;;;15.60;76.10;;;;;;4976408;28;20034;-73
2022/03/23 12:47:51;;;;;;;8.18;4.40;;;15.40;75.90;;;;;;4966568;28;20038;-73
2022/03/23 12:58:42;;;;;;;9.82;3.80;;;15.30;76.10;;;;;;4954048;29;20030;-73
2022/03/23 13:01:18;;;;;;;9.10;4.82;;;15.10;75.40;;;;;;4957995;28;20062;-73
2022/03/23 13:03:44;;;;;;;6.43;3.83;;;15.00;76.00;;;;;;4975135;28;20027;-73
2022/03/23 13:06:14;;;;;;;10.88;3.75;;;15.10;75.60;;;;;;4976674;28;20042;-73
2022/03/23 13:08:48;;;;;;;5.70;3.30;;;14.80;76.30;;;;;;4968370;28;20026;-73
2022/03/23 13:11:15;;;;;;;6.40;4.00;;;14.90;76.50;;;;;;4976316;28;20107;-73
2022/03/23 13:13:41;;;;;;;7.82;4.57;;;15.00;75.10;;;;;;4968895;28;20451;-73
2022/03/23 13:16:20;;;;;;;10.38;4.82;;;15.00;76.80;;;;;;4961036;28;20015;-73
2022/03/23 13:18:46;;;;;;;10.88;4.70;;;15.10;76.30;;;;;;4974553;28;20490;-73
2022/03/23 13:21:18;;;;;;;7.20;3.92;;;15.00;76.10;;;;;;4959413;28;20031;-73
2022/03/23 13:23:47;;;;;;;7.38;4.10;;;15.00;75.40;;;;;;4973419;28;20501;-72
2022/03/23 13:26:17;;;;;;;7.50;4.30;;;14.90;75.00;;;;;;4975268;28;20041;-73
2022/03/23 13:28:50;;;;;;;8.48;4.22;;;14.90;75.00;;;;;;4975053;28;20033;-72
2022/03/23 13:31:22;;;;;;;7.00;3.67;;;14.80;75.70;;;;;;4989833;28;20030;-73
2022/03/23 13:33:50;;;;;;;8.73;3.75;;;14.70;75.20;;;;;;4975267;28;20497;-73
2022/03/23 13:36:18;;;;;;;7.47;3.75;;;14.60;75.30;;;;;;4966443;28;20402;-73
2022/03/23 13:38:49;;;;;;;10.45;4.43;;;14.70;75.30;;;;;;4975805;28;20023;-72
2022/03/23 13:44:03;;;;;;;10.20;4.70;;;14.90;75.70;;;;;;4975341;28;20082;-73
2022/03/23 13:46:30;;;;;;;7.03;3.72;;;15.00;75.80;;;;;;4979973;28;20430;-72
2022/03/23 13:49:10;;;;;;;9.50;4.10;;;15.10;75.40;;;;;;4985931;28;20479;-73
2022/03/23 13:51:38;;;;;;;8.90;4.43;;;15.20;75.50;;;;;;4976079;28;20081;-73
2022/03/23 13:54:09;;;;;;;7.63;3.75;;;15.00;74.70;;;;;;4957886;28;20051;-73
2022/03/23 13:56:41;;;;;;;8.93;4.20;;;15.00;73.10;;;;;;4976101;28;20015;-73
2022/03/23 13:59:08;;;;;;;;;;;15.00;73.00;;;;;;4975873;28;20073;-73
2022/03/23 14:01:48;;;;;;;8.15;4.13;;;15.10;73.50;;;;;;4975191;28;19918;-73
2022/03/23 14:04:17;;;;;;;13.65;5.30;;;14.80;73.40;;;;;;4983131;28;20437;-73
2022/03/23 14:06:51;;;;;;;8.27;3.85;;;14.90;74.30;;;;;;4983144;28;20069;-73
2022/03/23 14:09:21;;;;;;;9.27;4.38;;;14.90;74.80;;;;;;4963380;28;20069;-73
2022/03/23 14:11:50;;;;;;;8.75;3.97;;;14.70;74.70;;;;;;4965056;28;20035;-73
2022/03/23 14:14:21;;;;;;;6.20;4.25;;;14.90;75.60;;;;;;4974117;28;20023;-73
2022/03/23 14:17:23;;;;;;;8.65;4.55;;;15.10;74.90;;;;;;4975085;28;20348;-72
2022/03/23 14:19:52;;;;;;;6.93;3.97;;;14.80;72.50;;;;;;4974840;28;20049;-73
2022/03/23 14:22:20;;;;;;;8.80;4.40;;;14.80;72.90;;;;;;4974863;28;20038;-72
2022/03/23 14:24:47;;;;;;;12.85;3.90;;;14.90;73.80;;;;;;4975694;28;20035;-72
2022/03/23 14:27:26;;;;;;;9.70;4.07;;;15.00;75.20;;;;;;4975192;28;20022;-72
2022/03/23 14:29:58;;;;;;;11.30;4.10;;;15.00;74.30;;;;;;4970247;28;20030;-73
2022/03/23 14:32:34;;;;;;;9.60;4.07;;;14.90;74.30;;;;;;4966033;28;20127;-73
2022/03/23 14:35:04;;;;;;;11.48;3.97;;;14.90;75.20;;;;;;4970272;28;20030;-73
2022/03/23 14:37:35;;;;;;;10.02;4.43;;;14.90;75.60;;;;;;4975007;28;20039;-72
2022/03/23 14:40:02;;;;;;;12.63;5.50;;;15.00;75.30;;;;;;4975431;28;20029;-73
2022/03/23 14:42:33;;;;;;;7.55;3.63;;;14.90;75.40;;;;;;4973160;28;20054;-73
2022/03/23 14:45:02;;;;;;;8.67;4.07;;;14.90;76.10;;;;;;4979808;28;20027;-73
2022/03/23 14:47:49;;;;;;;20.80;10.25;;;14.90;74.20;;;;;;4975770;28;20030;-73
2022/03/23 14:50:14;;;;;;;22.95;9.93;;;14.80;75.70;;;;;;4990655;28;20562;-73
2022/03/23 14:52:40;;;;;;;21.65;11.75;;;15.00;75.10;;;;;;4974489;28;20110;-73
2022/03/23 14:55:06;;;;;;;14.13;6.63;;;15.00;74.50;;;;;;4966449;28;20039;-73
2022/03/23 14:57:32;;;;;;;21.67;10.43;;;14.70;74.40;;;;;;4972852;28;20046;-72
2022/03/23 14:59:57;;;;;;;25.30;10.50;;;14.60;74.50;;;;;;4973828;28;20027;-73
2022/03/23 15:02:23;;;;;;;26.05;10.75;;;14.60;75.00;;;;;;4974075;28;20391;-72
2022/03/23 15:04:49;;;;;;;11.05;5.60;;;14.70;75.90;;;;;;4970282;28;20118;-73
2022/03/23 15:15:27;;;;;;;13.07;4.95;;;14.60;75.00;;;;;;4970938;28;20142;-73
2022/03/23 15:17:54;;;;;;;9.43;4.65;;;14.80;76.10;;;;;;4974020;28;20102;-73
2022/03/23 15:20:20;;;;;;;13.20;5.75;;;14.60;73.90;;;;;;4973649;28;20031;-73
2022/03/23 15:22:46;;;;;;;10.10;5.10;;;14.40;72.90;;;;;;4974504;28;20023;-73
2022/03/23 15:25:12;;;;;;;11.27;4.80;;;14.30;72.90;;;;;;4973960;28;20126;-73
2022/03/23 15:27:41;;;;;;;14.35;6.95;;;14.30;73.10;;;;;;4972619;28;20037;-73
2022/03/23 15:30:09;;;;;;;11.05;5.60;;;14.50;74.60;;;;;;4974016;28;20031;-73
2022/03/23 15:32:36;;;;;;;10.07;5.90;;;14.50;74.50;;;;;;4973703;28;20019;-73
2022/03/23 15:35:01;;;;;;;11.90;4.75;;;14.50;74.10;;;;;;4973074;28;20030;-73
2022/03/23 15:37:27;;;;;;;9.98;4.97;;;14.30;74.10;;;;;;4974081;28;20098;-73
2022/03/23 15:39:53;;;;;;;11.05;4.82;;;14.30;73.90;;;;;;4973735;28;20031;-73
2022/03/23 15:45:05;;;;;;;6.97;4.55;;;14.30;74.00;;;;;;4973809;28;20109;-73
2022/03/23 15:47:31;;;;;;;7.28;4.40;;;14.10;73.60;;;;;;4972072;28;20073;-73
2022/03/23 15:49:57;;;;;;;7.35;4.25;;;14.10;73.60;;;;;;4957948;28;20026;-73
2022/03/23 15:52:25;;;;;;;9.43;4.00;;;14.10;73.80;;;;;;4961386;28;20027;-73
2022/03/23 15:54:50;;;;;;;8.68;5.70;;;14.00;74.20;;;;;;4972183;28;20035;-72
2022/03/23 15:57:16;;;;;;;12.40;5.85;;;13.90;75.50;;;;;;4971924;28;20031;-72
2022/03/23 15:59:43;;;;;;;11.15;5.72;;;13.90;74.50;;;;;;4961297;28;20046;-74
2022/03/23 16:02:09;;;;;;;14.65;6.68;;;13.80;75.10;;;;;;4972901;28;20033;-73
2022/03/23 16:04:35;;;;;;;13.93;5.85;;;13.90;74.80;;;;;;4974035;28;20031;-73
2022/03/23 16:07:01;;;;;;;15.38;7.72;;;13.90;76.90;;;;;;4974010;28;20384;-73
2022/03/23 16:09:26;;;;;;;11.20;4.97;;;13.90;74.50;;;;;;4973304;28;20031;-73
2022/03/23 16:11:54;;;;;;;8.95;4.05;;;13.90;74.30;;;;;;4972933;28;20030;-73
2022/03/23 16:14:20;;;;;;;7.97;4.25;;;13.80;74.00;;;;;;4972341;28;20406;-73
2022/03/23 16:16:45;;;;;;;8.18;3.83;;;13.60;73.70;;;;;;4973072;28;20109;-73
2022/03/23 16:19:13;;;;;;;9.95;4.15;;;13.70;74.00;;;;;;4973360;28;20031;-72
2022/03/23 16:21:38;;;;;;;10.27;4.53;;;13.70;73.70;;;;;;4972030;28;20453;-73
2022/03/23 16:24:05;;;;;;;7.85;4.13;;;13.50;74.10;;;;;;4973430;28;20114;-72
2022/03/23 16:26:32;;;;;;;7.70;3.97;;;13.50;74.70;;;;;;4972610;28;20046;-73
2022/03/23 16:28:57;;;;;;;6.53;4.00;;;13.40;74.70;;;;;;4973355;28;20015;-73
2022/03/23 16:31:25;;;;;;;7.65;3.88;;;13.40;74.40;;;;;;4973592;28;20375;-73
2022/03/23 16:33:51;;;;;;;7.85;3.70;;;13.40;74.50;;;;;;4972828;28;20023;-73
2022/03/23 16:36:18;;;;;;;9.68;4.25;;;13.30;74.10;;;;;;4973214;28;20023;-73
2022/03/23 16:38:44;;;;;;;6.85;4.20;;;13.20;73.80;;;;;;4975058;28;20035;-73
2022/03/23 16:43:54;;;;;;;10.55;3.90;;;13.10;74.70;;;;;;4976572;28;20097;-73
2022/03/23 16:46:20;;;;;;;10.95;4.43;;;13.10;74.50;;;;;;4977172;28;20117;-73
2022/03/23 16:48:46;;;;;;;7.25;3.78;;;13.10;74.60;;;;;;4976619;28;20046;-73
2022/03/23 16:51:11;;;;;;;13.38;3.90;;;13.00;74.20;;;;;;4976978;28;20578;-73
2022/03/23 16:53:37;;;;;;;11.45;4.05;;;12.90;74.50;;;;;;4976555;28;20098;-73
2022/03/23 16:56:05;;;;;;;9.30;4.03;;;12.80;73.90;;;;;;4976792;28;20023;-73
2022/03/23 16:58:31;;;;;;;15.18;4.68;;;12.70;74.50;;;;;;4976532;28;20573;-73
2022/03/23 17:00:57;;;;;;;7.35;3.75;;;12.70;74.50;;;;;;4976523;28;20066;-73
2022/03/23 17:14:20;;;;;;;8.60;4.85;;;12.40;76.00;;;;;;4976376;28;20088;-73
2022/03/23 17:16:48;;;;;;;15.23;4.35;;;12.50;76.00;;;;;;4975564;28;20019;-73
2022/03/23 17:19:16;;;;;;;6.95;3.60;;;12.40;77.10;;;;;;4979147;28;20022;-72
2022/03/23 17:21:43;;;;;;;8.35;4.10;;;12.40;76.30;;;;;;4983255;28;20386;-73
2022/03/23 17:24:09;;;;;;;11.90;4.40;;;12.30;77.10;;;;;;4988277;28;20065;-73
2022/03/23 17:26:37;;;;;;;14.73;4.07;;;12.30;77.10;;;;;;4992370;28;20561;-72
2022/03/23 17:29:03;;;;;;;11.23;3.92;;;12.20;77.20;;;;;;4973965;28;20052;-73
2022/03/23 17:31:29;;;;;;;8.93;4.10;;;12.10;77.40;;;;;;4978506;28;20074;-73
2022/03/23 17:33:55;;;;;;;9.88;4.00;;;12.00;77.20;;;;;;4979559;28;20461;-73
2022/03/23 17:36:20;;;;;;;6.43;3.95;;;12.00;77.50;;;;;;4976352;28;20030;-72
2022/03/23 17:38:48;;;;;;;7.63;3.78;;;12.00;78.30;;;;;;4976017;28;20031;-73
2022/03/23 17:41:15;;;;;;;9.57;4.30;;;11.90;77.90;;;;;;4984918;28;20019;-72
2022/03/23 17:43:41;;;;;;;9.90;4.32;;;11.90;78.40;;;;;;4965000;28;20431;-73
2022/03/23 17:46:07;;;;;;;13.00;4.80;;;11.80;79.10;;;;;;4956745;28;20020;-73
2022/03/23 17:48:33;;;;;;;9.98;4.25;;;11.80;79.30;;;;;;4964737;28;20122;-73
2022/03/23 17:50:59;;;;;;;7.97;4.30;;;11.70;79.40;;;;;;4965289;28;20023;-73
2022/03/23 17:53:25;;;;;;;7.53;4.20;;;11.70;80.00;;;;;;4976404;28;20034;-72
2022/03/23 17:55:50;;;;;;;9.90;5.55;;;11.70;79.60;;;;;;4975386;28;20105;-73
2022/03/23 17:58:16;;;;;;;12.18;5.35;;;11.60;79.70;;;;;;4957536;28;20423;-73
2022/03/23 18:00:42;;;;;;;11.38;4.43;;;11.50;80.40;;;;;;4968677;28;20019;-73